Time;durP1;ratioP1;P1;durP2;ratioP2;P2;SDS_P1;SDS_P2;PMS_P1;PMS_P2;Temp;Humidity;BMP_temperature;BMP_pressure;BME280_temperature;BME280_humidity;BME280_pressure;Samples;Min_cycle;Max_cycle;Signal;HPM_P1;HPM_P2
2021/08/29 00:00:34;;;;;;;1.80;1.00;;;;;;;;;;5114846;28;20098;-67
2021/08/29 00:03:00;;;;;;;2.83;1.23;;;;;;;;;;5114796;28;20053;-67
2021/08/29 00:05:26;;;;;;;3.90;1.40;;;;;;;;;;5114801;28;20028;-66
2021/08/29 00:07:52;;;;;;;1.98;1.27;;;;;;;;;;5114515;28;20483;-66
2021/08/29 00:10:18;;;;;;;1.60;1.20;;;;;;;;;;5114409;28;20023;-66
2021/08/29 00:12:45;;;;;;;3.92;1.60;;;;;;;;;;5114402;28;20048;-68
2021/08/29 00:15:11;;;;;;;2.28;1.40;;;;;;;;;;5114599;28;20057;-66
2021/08/29 00:17:37;;;;;;;2.05;1.45;;;;;;;;;;5112426;28;20023;-66
2021/08/29 00:20:03;;;;;;;3.13;1.33;;;;;;;;;;5111406;28;20028;-65
2021/08/29 00:22:29;;;;;;;2.45;1.30;;;;;;;;;;5111843;28;20099;-66
2021/08/29 00:24:55;;;;;;;2.03;1.20;;;;;;;;;;5114130;28;20024;-66
2021/08/29 00:27:21;;;;;;;2.75;1.40;;;;;;;;;;5114497;28;20464;-65
2021/08/29 00:29:47;;;;;;;2.75;1.40;;;;;;;;;;5114394;28;20020;-66
2021/08/29 00:32:14;;;;;;;3.72;1.30;;;;;;;;;;5114074;28;20024;-66
2021/08/29 00:34:40;;;;;;;1.70;1.40;;;;;;;;;;5114201;28;20577;-66
2021/08/29 00:37:06;;;;;;;2.45;1.40;;;;;;;;;;5114266;28;20020;-68
2021/08/29 00:39:33;;;;;;;1.77;1.25;;;;;;;;;;5114198;28;20115;-66
2021/08/29 00:41:59;;;;;;;3.15;1.33;;;;;;;;;;5114031;28;20048;-66
2021/08/29 00:44:25;;;;;;;2.40;1.45;;;;;;;;;;5113699;28;20078;-67
2021/08/29 00:46:51;;;;;;;2.10;1.25;;;;;;;;;;5113868;28;20077;-67
2021/08/29 00:49:18;;;;;;;2.72;1.60;;;;;;;;;;5113970;28;20031;-66
2021/08/29 00:51:45;;;;;;;2.60;1.45;;;;;;;;;;5113925;28;20015;-66
2021/08/29 00:54:11;;;;;;;2.20;1.50;;;;;;;;;;5113621;28;20157;-67
2021/08/29 00:56:37;;;;;;;1.95;1.30;;;;;;;;;;5113722;28;20118;-67
2021/08/29 00:59:03;;;;;;;4.93;1.20;;;;;;;;;;5111214;28;20035;-66
2021/08/29 01:01:31;;;;;;;2.35;1.17;;;;;;;;;;5110619;28;20168;-66
2021/08/29 01:04:01;;;;;;;2.58;1.45;;;;;;;;;;5111208;28;20418;-67
2021/08/29 01:06:32;;;;;;;6.47;1.50;;;;;;;;;;5113112;28;20034;-70
2021/08/29 01:09:01;;;;;;;3.70;1.50;;;;;;;;;;5113574;28;20028;-67
2021/08/29 01:11:28;;;;;;;2.33;1.40;;;;;;;;;;5113514;28;20034;-67
2021/08/29 01:14:04;;;;;;;1.98;1.23;;;;;;;;;;5113147;28;20079;-66
2021/08/29 01:16:33;;;;;;;3.95;1.58;;;;;;;;;;5113677;28;20020;-66
2021/08/29 01:19:01;;;;;;;2.97;1.60;;;;;;;;;;5113330;28;20065;-66
2021/08/29 01:21:29;;;;;;;1.98;1.40;;;;;;;;;;5113272;28;20050;-67
2021/08/29 01:23:58;;;;;;;2.50;1.40;;;;;;;;;;5113382;28;20069;-67
2021/08/29 01:26:36;;;;;;;2.08;1.30;;;;;;;;;;5113285;28;20031;-67
2021/08/29 01:29:10;;;;;;;2.95;1.50;;;;;;;;;;5113000;28;20102;-67
2021/08/29 01:31:37;;;;;;;2.17;1.42;;;;;;;;;;5113266;28;20102;-66
2021/08/29 01:34:07;;;;;;;2.38;1.40;;;;;;;;;;5113389;28;20394;-66
2021/08/29 01:36:33;;;;;;;5.63;1.20;;;;;;;;;;5094645;28;20115;-67
2021/08/29 01:39:02;;;;;;;2.00;1.20;;;;;;;;;;5113029;28;20446;-66
2021/08/29 01:41:28;;;;;;;1.77;1.30;;;;;;;;;;5113287;28;20361;-66
2021/08/29 01:43:54;;;;;;;2.58;1.40;;;;;;;;;;5112622;28;20023;-67
2021/08/29 01:46:20;;;;;;;2.47;1.30;;;;;;;;;;5113066;28;20047;-68
2021/08/29 01:48:46;;;;;;;1.85;1.17;;;;;;;;;;5113248;28;20028;-67
2021/08/29 01:51:12;;;;;;;2.00;1.40;;;;;;;;;;5113038;28;20072;-67
2021/08/29 01:53:39;;;;;;;2.03;1.17;;;;;;;;;;5113155;28;20081;-66
2021/08/29 01:56:06;;;;;;;2.95;1.30;;;;;;;;;;5114943;28;20032;-66
2021/08/29 01:58:32;;;;;;;1.98;1.30;;;;;;;;;;5116771;28;20034;-67
2021/08/29 02:00:59;;;;;;;1.42;1.20;;;;;;;;;;5117410;28;20050;-67
2021/08/29 02:03:25;;;;;;;1.48;1.15;;;;;;;;;;5116962;28;20023;-67
2021/08/29 02:05:54;;;;;;;2.13;1.27;;;;;;;;;;5117082;28;20027;-67
2021/08/29 02:08:21;;;;;;;1.75;1.10;;;;;;;;;;5117422;28;20031;-66
2021/08/29 02:10:48;;;;;;;1.98;1.10;;;;;;;;;;5117022;28;20462;-68
2021/08/29 02:13:15;;;;;;;1.58;1.10;;;;;;;;;;5116906;28;20051;-66
2021/08/29 02:15:44;;;;;;;2.20;1.27;;;;;;;;;;5116930;28;20031;-69
2021/08/29 02:18:12;;;;;;;2.47;1.30;;;;;;;;;;5116936;28;20081;-68
2021/08/29 02:20:38;;;;;;;1.98;0.93;;;;;;;;;;5116803;28;20149;-67
2021/08/29 02:23:04;;;;;;;2.55;0.95;;;;;;;;;;5116794;28;20020;-66
2021/08/29 02:25:31;;;;;;;2.22;1.30;;;;;;;;;;5116768;28;20035;-68
2021/08/29 02:27:57;;;;;;;3.50;1.63;;;;;;;;;;5116887;28;20091;-67
2021/08/29 02:30:23;;;;;;;1.80;1.20;;;;;;;;;;5098600;28;20114;-66
2021/08/29 02:32:51;;;;;;;1.58;1.13;;;;;;;;;;5116491;28;20085;-66
2021/08/29 02:35:17;;;;;;;2.72;1.20;;;;;;;;;;5116312;28;20088;-66
2021/08/29 02:37:44;;;;;;;1.48;1.02;;;;;;;;;;5116686;28;20023;-68
2021/08/29 02:40:10;;;;;;;1.10;1.00;;;;;;;;;;5116401;28;20051;-66
2021/08/29 02:42:38;;;;;;;2.30;1.20;;;;;;;;;;5116486;28;20015;-66
2021/08/29 02:45:05;;;;;;;2.03;1.13;;;;;;;;;;5116426;28;20058;-65
2021/08/29 02:47:31;;;;;;;2.45;1.05;;;;;;;;;;5113250;28;20480;-66
2021/08/29 02:49:57;;;;;;;1.23;1.00;;;;;;;;;;5113340;28;20492;-68
2021/08/29 02:52:24;;;;;;;1.90;1.17;;;;;;;;;;5114601;28;20467;-66
2021/08/29 02:54:51;;;;;;;2.47;1.10;;;;;;;;;;5116170;28;20078;-66
2021/08/29 02:57:18;;;;;;;2.38;1.08;;;;;;;;;;5116261;28;20416;-67
2021/08/29 02:59:44;;;;;;;3.70;1.52;;;;;;;;;;5116003;28;20103;-67
2021/08/29 03:02:11;;;;;;;1.92;1.13;;;;;;;;;;5115932;28;20023;-66
2021/08/29 03:04:37;;;;;;;2.65;1.40;;;;;;;;;;5115907;28;20036;-66
2021/08/29 03:07:03;;;;;;;2.70;1.25;;;;;;;;;;5115785;28;20132;-66
2021/08/29 03:09:33;;;;;;;1.77;1.10;;;;;;;;;;5116091;28;20416;-66
2021/08/29 03:12:01;;;;;;;2.38;1.23;;;;;;;;;;5115753;28;20020;-67
2021/08/29 03:14:28;;;;;;;1.70;1.15;;;;;;;;;;5115575;28;20061;-66
2021/08/29 03:16:54;;;;;;;2.05;1.33;;;;;;;;;;5115529;28;20023;-66
2021/08/29 03:19:20;;;;;;;3.13;1.13;;;;;;;;;;5115711;28;20028;-66
2021/08/29 03:21:46;;;;;;;1.65;1.00;;;;;;;;;;5115680;28;20023;-67
2021/08/29 03:24:12;;;;;;;2.65;0.93;;;;;;;;;;5115657;28;20111;-66
2021/08/29 03:26:38;;;;;;;2.92;1.02;;;;;;;;;;5115462;28;20383;-66
2021/08/29 03:29:04;;;;;;;2.05;0.90;;;;;;;;;;5115500;28;20061;-66
2021/08/29 03:31:31;;;;;;;1.65;0.95;;;;;;;;;;5115192;28;20019;-66
2021/08/29 03:33:58;;;;;;;2.33;1.10;;;;;;;;;;5115341;28;20380;-66
2021/08/29 03:36:24;;;;;;;1.63;1.17;;;;;;;;;;5115273;28;20016;-67
2021/08/29 03:38:50;;;;;;;2.65;1.42;;;;;;;;;;5115392;28;20028;-66
2021/08/29 03:41:18;;;;;;;3.63;1.20;;;;;;;;;;5115258;28;20016;-67
2021/08/29 03:43:44;;;;;;;2.65;1.20;;;;;;;;;;5096876;28;20035;-67
2021/08/29 03:46:11;;;;;;;2.15;1.25;;;;;;;;;;5114932;28;20502;-66
2021/08/29 03:48:37;;;;;;;3.33;1.25;;;;;;;;;;5115069;28;20372;-66
2021/08/29 03:51:04;;;;;;;2.50;1.10;;;;;;;;;;5115039;28;20026;-66
2021/08/29 03:53:30;;;;;;;1.65;1.05;;;;;;;;;;5115066;28;20036;-68
2021/08/29 03:55:56;;;;;;;2.17;1.20;;;;;;;;;;5115096;28;20045;-67
2021/08/29 03:58:22;;;;;;;4.20;1.20;;;;;;;;;;5114907;28;20422;-68
2021/08/29 04:00:48;;;;;;;1.70;1.20;;;;;;;;;;5114806;28;20495;-67
2021/08/29 04:03:15;;;;;;;3.20;1.23;;;;;;;;;;5114696;28;20012;-68
2021/08/29 04:05:42;;;;;;;3.22;1.50;;;;;;;;;;5114928;28;20472;-67
2021/08/29 04:08:12;;;;;;;3.58;1.15;;;;;;;;;;5114744;28;20492;-67
2021/08/29 04:10:40;;;;;;;2.15;1.40;;;;;;;;;;5114637;28;20038;-68
2021/08/29 04:13:06;;;;;;;1.55;1.23;;;;;;;;;;5114300;28;20039;-68
2021/08/29 04:15:33;;;;;;;1.85;1.17;;;;;;;;;;5114794;28;20108;-66
2021/08/29 04:17:59;;;;;;;2.38;1.40;;;;;;;;;;5113662;28;20103;-66
2021/08/29 04:20:25;;;;;;;1.77;1.25;;;;;;;;;;5114327;28;20028;-68
2021/08/29 04:22:51;;;;;;;3.00;1.40;;;;;;;;;;5114548;28;20384;-68
2021/08/29 04:25:18;;;;;;;3.20;1.40;;;;;;;;;;5114405;28;20031;-69
2021/08/29 04:27:44;;;;;;;3.17;1.38;;;;;;;;;;5114227;28;20111;-67
2021/08/29 04:30:10;;;;;;;1.40;0.95;;;;;;;;;;5114404;28;20059;-68
2021/08/29 04:32:38;;;;;;;2.47;1.40;;;;;;;;;;5114212;28;20023;-67
2021/08/29 04:35:05;;;;;;;2.33;1.20;;;;;;;;;;5114125;28;20122;-67
2021/08/29 04:37:31;;;;;;;2.47;1.30;;;;;;;;;;5114080;28;20041;-67
2021/08/29 04:39:57;;;;;;;3.88;1.30;;;;;;;;;;5114182;28;20039;-66
2021/08/29 04:42:23;;;;;;;3.70;1.30;;;;;;;;;;5113656;28;20019;-66
2021/08/29 04:44:49;;;;;;;3.17;1.25;;;;;;;;;;5113991;28;20475;-67
2021/08/29 04:47:15;;;;;;;3.55;1.38;;;;;;;;;;5114225;28;20049;-67
2021/08/29 04:49:41;;;;;;;4.57;1.17;;;;;;;;;;5113879;28;20024;-66
2021/08/29 04:52:07;;;;;;;4.03;1.08;;;;;;;;;;5114031;28;20019;-68
2021/08/29 04:54:33;;;;;;;1.85;1.17;;;;;;;;;;5113738;28;20031;-66
2021/08/29 04:56:59;;;;;;;1.90;1.45;;;;;;;;;;5113679;28;20034;-67
2021/08/29 04:59:25;;;;;;;4.68;1.27;;;;;;;;;;5113925;28;20027;-66
2021/08/29 05:01:51;;;;;;;3.97;1.20;;;;;;;;;;5113920;28;20468;-66
2021/08/29 05:04:17;;;;;;;2.75;1.23;;;;;;;;;;5113970;28;20092;-66
2021/08/29 05:06:43;;;;;;;5.32;1.30;;;;;;;;;;5113971;28;20019;-67
2021/08/29 05:09:09;;;;;;;1.92;1.33;;;;;;;;;;5113402;28;20054;-67
2021/08/29 05:11:35;;;;;;;2.92;1.05;;;;;;;;;;5113969;28;20016;-67
2021/08/29 10:59:20;;;;;;;0.63;0.50;;;;;;;;;;5068877;28;20078;-66
2021/08/29 11:01:47;;;;;;;0.50;0.50;;;;;;;;;;5092562;28;20082;-67
2021/08/29 11:04:36;;;;;;;0.82;0.50;;;;;;;;;;5094103;28;20032;-68
2021/08/29 11:07:03;;;;;;;0.63;0.50;;;;;;;;;;5087122;28;20028;-67
2021/08/29 11:09:34;;;;;;;0.77;0.40;;;;;;;;;;5095367;28;20078;-66
2021/08/29 11:12:01;;;;;;;0.40;0.40;;;;;;;;;;5095417;28;20393;-66
2021/08/29 11:14:47;;;;;;;0.75;0.57;;;;;;;;;;5095387;28;20040;-67
2021/08/29 11:17:17;;;;;;;1.20;0.60;;;;;;;;;;5095299;28;20055;-66
2021/08/29 11:19:44;;;;;;;1.65;0.60;;;;;;;;;;5095434;28;20388;-66
2021/08/29 11:22:10;;;;;;;3.20;0.50;;;;;;;;;;5095302;28;20032;-67
2021/08/29 11:24:48;;;;;;;1.60;0.40;;;;;;;;;;5073826;28;20032;-66
2021/08/29 11:27:44;;;;;;;0.60;0.50;;;;;;;;;;5092062;28;20039;-67
2021/08/29 11:30:17;;;;;;;0.70;0.52;;;;;;;;;;5093573;28;20035;-67
2021/08/29 11:32:46;;;;;;;0.98;0.60;;;;;;;;;;5094842;28;20090;-66
2021/08/29 11:35:21;;;;;;;0.60;0.50;;;;;;;;;;5094777;28;20044;-67
2021/08/29 11:38:03;;;;;;;1.63;0.60;;;;;;;;;;5094939;28;20039;-67
2021/08/29 11:40:44;;;;;;;0.40;0.40;;;;;;;;;;5095113;28;20047;-67
2021/08/29 11:43:15;;;;;;;0.40;0.40;;;;;;;;;;5094717;28;20268;-66
2021/08/29 11:45:41;;;;;;;0.60;0.40;;;;;;;;;;5094699;28;20028;-67
2021/08/29 11:48:08;;;;;;;0.75;0.40;;;;;;;;;;5094314;28;20028;-68
2021/08/29 11:50:34;;;;;;;0.88;0.55;;;;;;;;;;5094525;28;20032;-67
2021/08/29 11:53:00;;;;;;;0.90;0.70;;;;;;;;;;5094682;28;20059;-66
2021/08/29 11:55:26;;;;;;;0.93;0.50;;;;;;;;;;5094414;28;20485;-67
2021/08/29 11:57:53;;;;;;;0.68;0.55;;;;;;;;;;5094416;28;20036;-64
2021/08/29 12:00:21;;;;;;;0.40;0.40;;;;;;;;;;5094081;28;20052;-67
2021/08/29 12:02:47;;;;;;;0.77;0.50;;;;;;;;;;5076844;28;20036;-67
2021/08/29 12:05:13;;;;;;;0.60;0.50;;;;;;;;;;5094690;28;20028;-68
2021/08/29 12:08:01;;;;;;;2.65;0.55;;;;;;;;;;5094223;28;20032;-67
2021/08/29 12:10:28;;;;;;;4.25;0.55;;;;;;;;;;5094560;28;20028;-66
2021/08/29 12:12:55;;;;;;;7.57;0.90;;;;;;;;;;5094285;28;20438;-66
2021/08/29 12:15:24;;;;;;;0.80;0.60;;;;;;;;;;5094014;28;20040;-67
2021/08/29 12:17:56;;;;;;;0.57;0.50;;;;;;;;;;5094300;28;20028;-68
2021/08/29 12:20:22;;;;;;;1.20;0.50;;;;;;;;;;5094449;28;20093;-67
2021/08/29 12:22:48;;;;;;;0.82;0.50;;;;;;;;;;5093912;28;20106;-68
2021/08/29 12:25:15;;;;;;;2.10;0.38;;;;;;;;;;5094248;28;20032;-66
2021/08/29 12:27:41;;;;;;;0.50;0.40;;;;;;;;;;5093978;28;20036;-67
2021/08/29 12:30:09;;;;;;;0.50;0.45;;;;;;;;;;5094043;28;20362;-66
2021/08/29 12:32:35;;;;;;;0.40;0.40;;;;;;;;;;5093982;28;20428;-67
2021/08/29 12:35:03;;;;;;;0.93;0.50;;;;;;;;;;5093830;28;20072;-66
2021/08/29 12:37:30;;;;;;;0.98;0.60;;;;;;;;;;5093813;28;20369;-66
2021/08/29 12:40:07;;;;;;;2.17;0.47;;;;;;;;;;5093216;28;20043;-66
2021/08/29 12:42:34;;;;;;;1.60;0.50;;;;;;;;;;5075549;28;20028;-66
2021/08/29 12:45:01;;;;;;;0.50;0.47;;;;;;;;;;5093529;28;20039;-67
2021/08/29 12:47:29;;;;;;;0.82;0.50;;;;;;;;;;5093801;28;20039;-67
2021/08/29 12:49:55;;;;;;;0.70;0.60;;;;;;;;;;5093782;28;20036;-67
2021/08/29 12:52:24;;;;;;;0.85;0.60;;;;;;;;;;5093726;28;20032;-68
2021/08/29 12:54:50;;;;;;;0.73;0.52;;;;;;;;;;5093230;28;20036;-66
2021/08/29 12:57:20;;;;;;;2.67;0.63;;;;;;;;;;5093286;28;20040;-67
2021/08/29 12:59:50;;;;;;;1.15;0.50;;;;;;;;;;5093258;28;20084;-67
2021/08/29 13:02:19;;;;;;;2.40;0.50;;;;;;;;;;5093620;28;20373;-67
2021/08/29 13:04:47;;;;;;;3.70;0.80;;;;;;;;;;5093273;28;20032;-64
2021/08/29 13:07:13;;;;;;;0.52;0.50;;;;;;;;;;5075637;28;20044;-66
2021/08/29 13:09:39;;;;;;;1.23;0.50;;;;;;;;;;5093142;28;20490;-68
2021/08/29 13:12:06;;;;;;;1.45;0.65;;;;;;;;;;5093383;28;20034;-67
2021/08/29 13:14:36;;;;;;;0.50;0.50;;;;;;;;;;5093305;28;20110;-67
2021/08/29 13:17:18;;;;;;;3.45;0.70;;;;;;;;;;5093196;28;20032;-67
2021/08/29 13:19:59;;;;;;;1.88;0.60;;;;;;;;;;5093291;28;20043;-66
2021/08/29 13:22:27;;;;;;;2.63;0.50;;;;;;;;;;5093517;28;20111;-66
2021/08/29 13:24:53;;;;;;;1.02;0.50;;;;;;;;;;5093088;28;20430;-66
2021/08/29 13:27:19;;;;;;;1.23;0.77;;;;;;;;;;5093187;28;20495;-68
2021/08/29 13:29:46;;;;;;;3.03;0.60;;;;;;;;;;5093104;28;20020;-66
2021/08/29 13:32:13;;;;;;;0.98;0.50;;;;;;;;;;5093084;28;20044;-67
2021/08/29 13:34:39;;;;;;;0.60;0.40;;;;;;;;;;5093077;28;20123;-69
2021/08/29 13:37:05;;;;;;;1.30;0.50;;;;;;;;;;5093197;28;20032;-65
2021/08/29 13:39:31;;;;;;;1.17;0.40;;;;;;;;;;5093152;28;20044;-66
2021/08/29 13:42:16;;;;;;;1.42;0.55;;;;;;;;;;5092924;28;20032;-66
2021/08/29 13:44:50;;;;;;;0.30;0.30;;;;;;;;;;5092744;28;20039;-67
2021/08/29 13:47:20;;;;;;;0.70;0.50;;;;;;;;;;5093015;28;20028;-65
2021/08/29 13:49:46;;;;;;;2.25;0.52;;;;;;;;;;5092987;28;20037;-69
2021/08/29 13:52:16;;;;;;;1.02;0.40;;;;;;;;;;5096698;28;20048;-65
2021/08/29 13:54:42;;;;;;;2.58;0.40;;;;;;;;;;5097157;28;20074;-66
2021/08/29 13:57:08;;;;;;;1.35;0.40;;;;;;;;;;5096856;28;20077;-66
2021/08/29 13:59:34;;;;;;;1.38;0.40;;;;;;;;;;5096638;28;20123;-66
2021/08/29 14:02:00;;;;;;;1.42;0.40;;;;;;;;;;5096743;28;20035;-67
2021/08/29 14:04:26;;;;;;;2.83;0.30;;;;;;;;;;5096746;28;20032;-67
2021/08/29 14:06:52;;;;;;;0.90;0.40;;;;;;;;;;5096544;28;20036;-65
2021/08/29 14:09:18;;;;;;;0.40;0.38;;;;;;;;;;5096751;28;20071;-69
2021/08/29 14:11:44;;;;;;;0.65;0.30;;;;;;;;;;5097110;28;20043;-67
2021/08/29 14:14:10;;;;;;;2.30;0.50;;;;;;;;;;5096291;28;20040;-67
2021/08/29 14:16:36;;;;;;;0.93;0.50;;;;;;;;;;5096735;28;20039;-68
2021/08/29 14:19:03;;;;;;;0.55;0.30;;;;;;;;;;5096473;28;20499;-66
2021/08/29 14:21:29;;;;;;;0.82;0.30;;;;;;;;;;5096380;28;20043;-67
2021/08/29 14:23:55;;;;;;;0.77;0.40;;;;;;;;;;5096436;28;20038;-66
2021/08/29 14:26:21;;;;;;;1.23;0.32;;;;;;;;;;5096610;28;20063;-66
2021/08/29 14:28:47;;;;;;;4.38;0.30;;;;;;;;;;5096193;28;20036;-66
2021/08/29 14:31:15;;;;;;;2.65;0.57;;;;;;;;;;5096346;28;20491;-68
2021/08/29 14:33:41;;;;;;;3.53;0.40;;;;;;;;;;5096349;28;20082;-67
2021/08/29 14:36:07;;;;;;;1.17;0.43;;;;;;;;;;5096212;28;20419;-67
2021/08/29 14:38:33;;;;;;;1.45;0.60;;;;;;;;;;5095984;28;20101;-68
2021/08/29 14:40:59;;;;;;;2.92;0.50;;;;;;;;;;5096299;28;20468;-66
2021/08/29 14:43:25;;;;;;;1.60;0.40;;;;;;;;;;5096079;28;20032;-66
2021/08/29 14:45:51;;;;;;;0.93;0.50;;;;;;;;;;5096033;28;20043;-66
2021/08/29 14:48:17;;;;;;;3.95;0.90;;;;;;;;;;5096233;28;20028;-66
2021/08/29 14:50:43;;;;;;;4.60;0.77;;;;;;;;;;5095836;28;20039;-67
2021/08/29 14:53:09;;;;;;;1.15;0.50;;;;;;;;;;5095537;28;20025;-66
2021/08/29 14:55:35;;;;;;;1.88;0.80;;;;;;;;;;5095822;28;20040;-66
2021/08/29 14:58:01;;;;;;;0.93;0.70;;;;;;;;;;5095766;28;20025;-67
2021/08/29 15:00:27;;;;;;;3.78;0.90;;;;;;;;;;5095404;28;20404;-66
2021/08/29 15:02:53;;;;;;;3.22;0.80;;;;;;;;;;5095311;28;20028;-66
2021/08/29 15:05:19;;;;;;;0.95;0.60;;;;;;;;;;5095592;28;20036;-67
2021/08/29 15:07:45;;;;;;;1.00;0.45;;;;;;;;;;5095510;28;20430;-67
2021/08/29 15:10:11;;;;;;;0.50;0.32;;;;;;;;;;5095844;28;20035;-70
2021/08/29 15:12:37;;;;;;;1.10;0.45;;;;;;;;;;5095569;28;20130;-66
2021/08/29 15:15:04;;;;;;;0.75;0.30;;;;;;;;;;5095288;28;20058;-66
2021/08/29 15:17:30;;;;;;;0.70;0.45;;;;;;;;;;5095342;28;20481;-66
2021/08/29 15:19:56;;;;;;;4.03;0.80;;;;;;;;;;5095134;28;20040;-66
2021/08/29 15:22:22;;;;;;;1.33;0.60;;;;;;;;;;5095190;28;20028;-69
2021/08/29 15:24:48;;;;;;;3.95;0.65;;;;;;;;;;5095163;28;20043;-70
2021/08/29 15:27:14;;;;;;;0.95;0.55;;;;;;;;;;5094956;28;20028;-66
2021/08/29 15:29:41;;;;;;;1.73;0.63;;;;;;;;;;5095197;28;20082;-68
2021/08/29 15:32:07;;;;;;;2.53;1.02;;;;;;;;;;5095277;28;20047;-69
2021/08/29 15:34:34;;;;;;;1.25;0.60;;;;;;;;;;5095527;28;20131;-67
2021/08/29 15:37:00;;;;;;;0.60;0.40;;;;;;;;;;5094773;28;20036;-66
2021/08/29 15:39:26;;;;;;;1.00;0.30;;;;;;;;;;5095065;28;20028;-67
2021/08/29 15:41:55;;;;;;;1.52;0.43;;;;;;;;;;5095252;28;20115;-66
2021/08/29 15:44:25;;;;;;;2.55;0.50;;;;;;;;;;5094860;28;20024;-69
2021/08/29 15:46:52;;;;;;;6.18;0.40;;;;;;;;;;5094485;28;20028;-67
2021/08/29 15:49:18;;;;;;;1.95;0.52;;;;;;;;;;5094657;28;20523;-67
2021/08/29 15:51:45;;;;;;;0.93;0.50;;;;;;;;;;5094535;28;20036;-67
2021/08/29 15:54:11;;;;;;;2.42;0.55;;;;;;;;;;5094824;28;20040;-66
2021/08/29 15:56:37;;;;;;;1.00;0.50;;;;;;;;;;5094829;28;20031;-67
2021/08/29 15:59:03;;;;;;;3.38;0.63;;;;;;;;;;5094470;28;20576;-67
2021/08/29 16:01:29;;;;;;;1.23;0.50;;;;;;;;;;5094257;28;20404;-68
2021/08/29 16:03:55;;;;;;;1.52;0.40;;;;;;;;;;5094470;28;20039;-66
2021/08/29 16:06:21;;;;;;;3.10;0.52;;;;;;;;;;5094534;28;20487;-68
2021/08/29 16:08:48;;;;;;;1.08;0.70;;;;;;;;;;5094184;28;20032;-68
2021/08/29 16:11:14;;;;;;;2.78;0.82;;;;;;;;;;5094303;28;20123;-71
2021/08/29 16:13:40;;;;;;;2.42;0.50;;;;;;;;;;5093480;28;20047;-69
2021/08/29 16:16:06;;;;;;;4.03;0.80;;;;;;;;;;5093812;28;20036;-66
2021/08/29 16:18:32;;;;;;;1.38;0.70;;;;;;;;;;5094157;28;20465;-67
2021/08/29 16:20:58;;;;;;;4.18;0.93;;;;;;;;;;5094431;28;20123;-68
2021/08/29 16:23:24;;;;;;;4.60;1.55;;;;;;;;;;5094058;28;20032;-67
2021/08/29 16:25:50;;;;;;;5.22;1.23;;;;;;;;;;5094288;28;20547;-67
2021/08/29 16:28:16;;;;;;;8.20;1.10;;;;;;;;;;5094378;28;20530;-67
2021/08/29 16:30:42;;;;;;;3.50;1.00;;;;;;;;;;5094313;28;20043;-66
2021/08/29 16:33:08;;;;;;;2.08;0.73;;;;;;;;;;5094161;28;20392;-65
2021/08/29 16:35:34;;;;;;;3.35;0.98;;;;;;;;;;5093768;28;20040;-66
2021/08/29 16:38:00;;;;;;;4.75;1.10;;;;;;;;;;5093889;28;20580;-66
2021/08/29 16:40:26;;;;;;;7.53;1.30;;;;;;;;;;5094090;28;20032;-66
2021/08/29 16:42:52;;;;;;;3.78;1.40;;;;;;;;;;5093855;28;20036;-66
2021/08/29 16:45:19;;;;;;;3.85;1.08;;;;;;;;;;5093661;28;20040;-67
2021/08/29 16:47:46;;;;;;;3.03;1.13;;;;;;;;;;5093752;28;20396;-66
2021/08/29 16:50:13;;;;;;;3.92;1.30;;;;;;;;;;5093687;28;20040;-68
2021/08/29 16:52:39;;;;;;;2.85;0.93;;;;;;;;;;5093691;28;20060;-66
2021/08/29 16:55:05;;;;;;;5.10;1.42;;;;;;;;;;5093366;28;20112;-67
2021/08/29 16:57:31;;;;;;;5.40;1.48;;;;;;;;;;5093640;28;20036;-66
2021/08/29 16:59:59;;;;;;;3.90;1.50;;;;;;;;;;5093180;28;20109;-66
2021/08/29 17:02:25;;;;;;;2.88;1.17;;;;;;;;;;5093662;28;20036;-66
2021/08/29 17:04:51;;;;;;;6.75;1.60;;;;;;;;;;5093381;28;20032;-65
2021/08/29 17:07:17;;;;;;;6.05;0.90;;;;;;;;;;5093106;28;20065;-66
2021/08/29 17:09:43;;;;;;;2.80;1.10;;;;;;;;;;5093505;28;20036;-66
2021/08/29 17:12:09;;;;;;;3.55;1.02;;;;;;;;;;5093366;28;20537;-65
2021/08/29 17:14:35;;;;;;;6.13;1.13;;;;;;;;;;5093149;28;20165;-66
2021/08/29 17:17:02;;;;;;;1.63;0.80;;;;;;;;;;5093404;28;20071;-67
2021/08/29 17:19:28;;;;;;;2.10;1.02;;;;;;;;;;5093523;28;20484;-65
2021/08/29 17:21:54;;;;;;;2.08;1.10;;;;;;;;;;5093381;28;20028;-66
2021/08/29 17:24:20;;;;;;;3.65;0.85;;;;;;;;;;5093201;28;20035;-66
2021/08/29 17:26:46;;;;;;;1.45;1.20;;;;;;;;;;5093062;28;20036;-66
2021/08/29 17:29:12;;;;;;;1.52;1.08;;;;;;;;;;5093163;28;20044;-66
2021/08/29 17:31:38;;;;;;;1.35;0.90;;;;;;;;;;5093342;28;20028;-66
2021/08/29 17:34:04;;;;;;;2.25;1.10;;;;;;;;;;5093094;28;20040;-66
2021/08/29 17:36:31;;;;;;;2.33;1.00;;;;;;;;;;5093124;28;20082;-66
2021/08/29 17:38:57;;;;;;;0.93;0.70;;;;;;;;;;5092964;28;20066;-67
2021/08/29 17:41:23;;;;;;;2.25;0.90;;;;;;;;;;5075079;28;20036;-66
2021/08/29 17:43:50;;;;;;;3.20;1.08;;;;;;;;;;5093506;28;20032;-66
2021/08/29 17:46:16;;;;;;;2.95;1.10;;;;;;;;;;5093072;28;20040;-65
2021/08/29 17:48:42;;;;;;;1.70;0.80;;;;;;;;;;5092868;28;20028;-66
2021/08/29 17:51:08;;;;;;;2.75;0.80;;;;;;;;;;5092821;28;20040;-67
2021/08/29 17:53:34;;;;;;;1.83;0.77;;;;;;;;;;5092889;28;20111;-66
2021/08/29 17:56:00;;;;;;;0.93;0.65;;;;;;;;;;5092992;28;20067;-65
2021/08/29 17:58:27;;;;;;;3.72;0.90;;;;;;;;;;5092625;28;20048;-66
2021/08/29 18:00:53;;;;;;;1.15;0.90;;;;;;;;;;5092568;28;20040;-66
2021/08/29 18:03:19;;;;;;;1.77;0.68;;;;;;;;;;5092947;28;20103;-66
2021/08/29 18:05:45;;;;;;;3.20;0.90;;;;;;;;;;5092973;28;20040;-66
2021/08/29 18:08:11;;;;;;;2.42;0.88;;;;;;;;;;5092798;28;20085;-66
2021/08/29 18:10:37;;;;;;;2.28;1.00;;;;;;;;;;5092984;28;20089;-67
2021/08/29 18:13:04;;;;;;;9.32;1.20;;;;;;;;;;5092864;28;20362;-70
2021/08/29 18:15:30;;;;;;;5.32;1.40;;;;;;;;;;5092634;28;20102;-68
2021/08/29 18:17:56;;;;;;;2.60;1.00;;;;;;;;;;5092513;28;20036;-67
2021/08/29 18:20:22;;;;;;;3.05;0.90;;;;;;;;;;5092933;28;20111;-66
2021/08/29 18:22:49;;;;;;;1.65;0.73;;;;;;;;;;5093067;28;20388;-67
2021/08/29 18:25:15;;;;;;;8.07;0.88;;;;;;;;;;5092536;28;20087;-70
2021/08/29 18:27:41;;;;;;;1.85;1.00;;;;;;;;;;5092643;28;20037;-65
2021/08/29 18:30:12;;;;;;;1.15;0.70;;;;;;;;;;5092641;28;20395;-65
2021/08/29 18:32:38;;;;;;;2.42;0.90;;;;;;;;;;5074543;28;20392;-66
2021/08/29 18:35:04;;;;;;;3.22;1.13;;;;;;;;;;5092579;28;20079;-67
2021/08/29 18:37:30;;;;;;;3.38;1.35;;;;;;;;;;5093472;28;20038;-67
2021/08/29 18:39:56;;;;;;;4.00;1.17;;;;;;;;;;5095968;28;20063;-69
2021/08/29 18:42:22;;;;;;;3.10;1.10;;;;;;;;;;5096247;28;20037;-65
2021/08/29 18:44:48;;;;;;;2.00;1.10;;;;;;;;;;5096116;28;20036;-67
2021/08/29 18:47:14;;;;;;;2.70;1.13;;;;;;;;;;5096054;28;20024;-67
2021/08/29 18:49:41;;;;;;;2.70;1.00;;;;;;;;;;5096149;28;20107;-65
2021/08/29 18:52:07;;;;;;;1.90;1.00;;;;;;;;;;5095618;28;20047;-66
2021/08/29 18:54:33;;;;;;;1.70;1.00;;;;;;;;;;5095843;28;20474;-66
2021/08/29 18:57:00;;;;;;;2.33;0.90;;;;;;;;;;5095835;28;20103;-65
2021/08/29 18:59:27;;;;;;;2.17;1.10;;;;;;;;;;5095809;28;20063;-66
2021/08/29 19:01:55;;;;;;;2.67;0.93;;;;;;;;;;5095693;28;20035;-65
2021/08/29 19:04:21;;;;;;;2.42;1.00;;;;;;;;;;5095883;28;20059;-66
2021/08/29 19:06:47;;;;;;;4.50;1.10;;;;;;;;;;5095840;28;20358;-67
2021/08/29 19:09:13;;;;;;;2.65;1.20;;;;;;;;;;5077261;28;20054;-67
2021/08/29 19:11:40;;;;;;;1.88;1.00;;;;;;;;;;5095488;28;20047;-65
2021/08/29 19:14:07;;;;;;;3.67;1.33;;;;;;;;;;5095487;28;20051;-66
2021/08/29 19:16:33;;;;;;;2.28;1.30;;;;;;;;;;5095347;28;20103;-65
2021/08/29 19:18:59;;;;;;;4.80;0.80;;;;;;;;;;5095331;28;20068;-65
2021/08/29 19:21:26;;;;;;;2.53;0.80;;;;;;;;;;5095212;28;20028;-65
2021/08/29 19:23:52;;;;;;;2.10;0.90;;;;;;;;;;5095427;28;20035;-65
2021/08/29 19:26:19;;;;;;;1.88;1.10;;;;;;;;;;5095190;28;20040;-65
2021/08/29 19:28:45;;;;;;;1.77;0.85;;;;;;;;;;5095006;28;20089;-65
2021/08/29 19:31:12;;;;;;;2.35;1.02;;;;;;;;;;5095287;28;20040;-65
2021/08/29 19:33:38;;;;;;;2.65;0.95;;;;;;;;;;5095067;28;20032;-65
2021/08/29 19:36:05;;;;;;;2.50;1.00;;;;;;;;;;5095035;28;20058;-66
2021/08/29 19:38:31;;;;;;;1.20;0.82;;;;;;;;;;5094977;28;20032;-65
2021/08/29 19:40:57;;;;;;;1.25;0.90;;;;;;;;;;5094849;28;20040;-66
2021/08/29 19:43:23;;;;;;;4.43;0.90;;;;;;;;;;5094918;28;20465;-65
2021/08/29 19:45:49;;;;;;;1.15;0.88;;;;;;;;;;5095147;28;20028;-67
2021/08/29 19:48:16;;;;;;;2.75;0.95;;;;;;;;;;5094697;28;20040;-65
2021/08/29 19:50:42;;;;;;;3.15;0.93;;;;;;;;;;5094655;28;20028;-66
2021/08/29 19:53:08;;;;;;;1.58;0.90;;;;;;;;;;5094817;28;20423;-66
2021/08/29 19:55:34;;;;;;;7.15;0.90;;;;;;;;;;5094697;28;20040;-66
2021/08/29 19:58:00;;;;;;;2.42;1.10;;;;;;;;;;5094855;28;20082;-66
2021/08/29 20:00:26;;;;;;;4.57;1.08;;;;;;;;;;5094391;28;20116;-66
2021/08/29 20:02:55;;;;;;;2.30;1.10;;;;;;;;;;5094680;28;20036;-66
2021/08/29 20:05:21;;;;;;;4.65;1.08;;;;;;;;;;5094434;28;20498;-66
2021/08/29 20:07:48;;;;;;;6.00;1.10;;;;;;;;;;5094346;28;20043;-65
2021/08/29 20:10:14;;;;;;;1.58;1.02;;;;;;;;;;5094517;28;20024;-66
2021/08/29 20:12:41;;;;;;;1.30;0.80;;;;;;;;;;5094287;28;20043;-65
2021/08/29 20:15:07;;;;;;;1.88;0.82;;;;;;;;;;5094366;28;20098;-66
2021/08/29 20:17:33;;;;;;;1.35;0.90;;;;;;;;;;5094543;28;20086;-65
2021/08/29 20:19:59;;;;;;;3.67;0.98;;;;;;;;;;5094111;28;20079;-65
2021/08/29 20:22:25;;;;;;;2.08;0.80;;;;;;;;;;5094258;28;20032;-67
2021/08/29 20:24:52;;;;;;;2.25;0.98;;;;;;;;;;5094044;28;20377;-66
2021/08/29 20:27:19;;;;;;;1.55;0.75;;;;;;;;;;5093944;28;20097;-66